Time;durP1;ratioP1;P1;durP2;ratioP2;P2;SDS_P1;SDS_P2;PMS_P1;PMS_P2;Temp;Humidity;BMP_temperature;BMP_pressure;BME280_temperature;BME280_humidity;BME280_pressure;Samples;Min_cycle;Max_cycle;Signal;HPM_P1;HPM_P2
2023/03/20 00:00:34;;;;;;;5.35;2.40;;;7.40;99.90;;;;;;4978358;28;20363;-71
2023/03/20 00:03:00;;;;;;;4.93;2.08;;;7.40;99.90;;;;;;4974198;28;20081;-68
2023/03/20 00:05:27;;;;;;;11.10;3.45;;;7.40;99.90;;;;;;4972379;28;20215;-74
2023/03/20 00:07:54;;;;;;;5.28;2.80;;;7.40;99.90;;;;;;4976404;28;20085;-69
2023/03/20 00:12:48;;;;;;;6.70;2.72;;;7.50;99.90;;;;;;4988063;28;20046;-67
2023/03/20 00:15:34;;;;;;;4.40;2.35;;;7.40;99.90;;;;;;4965183;28;20046;-67
2023/03/20 00:17:59;;;;;;;6.88;2.60;;;7.50;99.90;;;;;;4962157;28;20137;-67
2023/03/20 00:20:29;;;;;;;7.73;2.40;;;7.50;99.90;;;;;;4971964;28;20035;-67
2023/03/20 00:22:54;;;;;;;7.00;2.70;;;7.50;99.90;;;;;;4988713;28;20500;-67
2023/03/20 00:25:23;;;;;;;4.85;2.25;;;7.50;99.90;;;;;;4987771;28;20109;-67
2023/03/20 00:27:50;;;;;;;5.22;2.45;;;7.50;99.90;;;;;;4992058;28;20046;-67
2023/03/20 00:30:27;;;;;;;;;;;7.50;99.90;;;;;;4972314;28;20511;-66
2023/03/20 00:32:53;;;;;;;5.72;2.55;;;7.50;99.90;;;;;;4986907;28;19930;-67
2023/03/20 00:35:26;;;;;;;5.15;2.85;;;7.50;99.90;;;;;;4969363;28;20033;-66
2023/03/20 00:37:53;;;;;;;8.65;3.13;;;7.60;99.90;;;;;;4966830;28;20062;-67
2023/03/20 00:40:19;;;;;;;;;;;7.60;99.90;;;;;;4989778;28;20041;-67
2023/03/20 00:42:50;;;;;;;4.53;2.45;;;7.50;99.90;;;;;;4971927;28;20005;-67
2023/03/20 00:45:22;;;;;;;6.88;2.42;;;7.60;99.90;;;;;;4971914;28;20484;-67
2023/03/20 00:47:52;;;;;;;6.53;2.08;;;7.60;99.90;;;;;;4986482;28;20400;-67
2023/03/20 00:50:23;;;;;;;9.63;2.83;;;7.60;99.90;;;;;;4985382;28;20071;-67
2023/03/20 00:52:50;;;;;;;9.73;3.10;;;7.60;99.90;;;;;;4991111;28;20046;-67
2023/03/20 00:55:20;;;;;;;13.02;3.13;;;7.60;99.90;;;;;;4986908;28;20042;-67
2023/03/20 00:57:50;;;;;;;7.63;3.58;;;7.60;99.90;;;;;;4990344;28;20046;-67
2023/03/20 01:00:16;;;;;;;9.13;3.33;;;7.60;99.90;;;;;;4971339;28;20039;-66
2023/03/20 01:02:42;;;;;;;7.90;2.87;;;7.60;99.90;;;;;;4986860;28;20515;-67
2023/03/20 01:05:07;;;;;;;6.53;3.23;;;7.60;99.90;;;;;;4971703;28;20294;-67
2023/03/20 01:07:33;;;;;;;6.80;3.30;;;7.60;99.90;;;;;;4967973;28;20172;-67
2023/03/20 01:09:59;;;;;;;10.30;3.73;;;7.60;99.90;;;;;;4970232;28;20320;-67
2023/03/20 01:12:25;;;;;;;9.13;3.08;;;7.60;99.90;;;;;;4970244;28;20475;-67
2023/03/20 01:14:54;;;;;;;11.70;3.00;;;7.70;99.90;;;;;;4971511;28;20452;-66
2023/03/20 01:17:21;;;;;;;8.82;3.53;;;7.60;99.90;;;;;;4985071;28;20077;-67
2023/03/20 01:19:48;;;;;;;11.35;3.33;;;7.60;99.90;;;;;;4988633;28;20496;-67
2023/03/20 01:22:13;;;;;;;10.43;3.17;;;7.70;99.90;;;;;;4972777;28;20420;-67
2023/03/20 01:24:40;;;;;;;12.97;4.13;;;7.70;99.90;;;;;;4971675;28;20108;-67
2023/03/20 01:27:16;;;;;;;9.02;3.60;;;7.70;99.90;;;;;;4972673;28;20334;-67
2023/03/20 01:29:42;;;;;;;10.43;3.20;;;7.70;99.90;;;;;;4987401;28;20058;-67
2023/03/20 01:32:11;;;;;;;5.57;2.92;;;7.70;99.90;;;;;;4953979;28;20184;-67
2023/03/20 01:34:37;;;;;;;10.70;3.03;;;7.70;99.90;;;;;;4994124;28;20058;-67
2023/03/20 01:37:03;;;;;;;11.57;4.03;;;7.70;99.90;;;;;;4973875;28;20053;-67
2023/03/20 01:39:33;;;;;;;8.70;3.37;;;7.70;99.90;;;;;;4972145;28;20038;-67
2023/03/20 01:41:59;;;;;;;8.60;3.33;;;7.60;99.90;;;;;;4952280;28;20104;-67
2023/03/20 01:44:31;;;;;;;6.60;3.10;;;7.70;99.90;;;;;;4990495;28;20096;-66
2023/03/20 01:46:57;;;;;;;10.98;3.42;;;7.70;99.90;;;;;;4981310;28;20413;-67
2023/03/20 01:49:22;;;;;;;8.93;3.47;;;7.80;99.90;;;;;;4969593;28;20354;-67
2023/03/20 01:51:49;;;;;;;10.80;3.20;;;7.80;99.90;;;;;;4969479;28;20057;-67
2023/03/20 01:54:34;;;;;;;8.90;3.30;;;7.80;99.90;;;;;;4971008;28;20042;-66
2023/03/20 01:57:15;;;;;;;9.13;2.95;;;7.70;99.90;;;;;;4965762;28;20050;-67
2023/03/20 02:00:02;;;;;;;12.38;2.90;;;7.80;99.90;;;;;;4971444;28;20491;-67
2023/03/20 02:02:30;;;;;;;7.93;3.13;;;7.80;99.90;;;;;;4969428;28;20466;-66
2023/03/20 02:05:02;;;;;;;8.32;3.75;;;7.80;99.90;;;;;;4985785;28;20125;-67
2023/03/20 02:07:28;;;;;;;12.07;3.53;;;7.80;99.90;;;;;;4969366;28;20428;-67
2023/03/20 02:09:54;;;;;;;8.57;4.13;;;7.80;99.90;;;;;;4972978;28;20113;-66
2023/03/20 02:12:21;;;;;;;9.35;3.55;;;7.80;99.90;;;;;;4969990;28;20461;-67
2023/03/20 02:14:47;;;;;;;11.63;3.75;;;7.80;99.90;;;;;;4968724;28;20078;-67
2023/03/20 02:17:14;;;;;;;6.57;3.13;;;7.80;99.90;;;;;;4987043;28;20074;-67
2023/03/20 02:19:52;;;;;;;9.05;3.10;;;7.80;99.90;;;;;;4984888;28;20468;-67
2023/03/20 02:22:36;;;;;;;7.72;3.25;;;7.80;99.90;;;;;;4985925;28;20061;-67
2023/03/20 02:25:44;;;;;;;10.27;3.65;;;7.80;99.90;;;;;;4984056;28;20462;-66
2023/03/20 02:28:32;;;;;;;11.20;3.90;;;7.80;99.90;;;;;;4962981;28;20042;-66
2023/03/20 02:31:16;;;;;;;11.55;3.70;;;7.80;99.90;;;;;;4984364;28;20046;-66
2023/03/20 02:34:40;;;;;;;10.02;4.22;;;7.80;99.90;;;;;;4977747;28;20046;-67
2023/03/20 02:37:50;;;;;;;8.98;3.83;;;7.80;99.90;;;;;;4899730;28;20052;-67
2023/03/20 02:40:33;;;;;;;8.27;3.67;;;7.80;99.90;;;;;;4958147;28;20122;-67
2023/03/20 02:43:10;;;;;;;10.07;4.53;;;7.80;99.90;;;;;;4964690;28;20039;-66
2023/03/20 02:45:48;;;;;;;15.40;4.60;;;7.80;99.90;;;;;;4971178;28;20054;-67
2023/03/20 02:48:46;;;;;;;13.18;5.13;;;7.90;99.90;;;;;;4971032;28;20034;-67
2023/03/20 02:51:26;;;;;;;12.68;4.80;;;7.80;99.90;;;;;;4985161;28;20203;-67
2023/03/20 02:54:03;;;;;;;12.32;5.00;;;7.90;99.90;;;;;;4984628;28;20057;-67
2023/03/20 02:57:00;;;;;;;10.13;4.70;;;7.90;99.90;;;;;;4983187;28;20096;-67
2023/03/20 02:59:42;;;;;;;9.93;4.55;;;7.80;99.90;;;;;;4961578;28;20046;-66
2023/03/20 03:02:12;;;;;;;12.55;5.07;;;7.90;99.90;;;;;;4969034;28;20042;-67
2023/03/20 03:04:43;;;;;;;11.23;4.72;;;7.90;99.90;;;;;;4986028;28;20051;-67
2023/03/20 03:07:11;;;;;;;15.20;5.22;;;7.90;99.90;;;;;;4983595;28;20046;-67
2023/03/20 03:09:45;;;;;;;11.02;5.15;;;7.90;99.90;;;;;;4968509;28;20126;-66
2023/03/20 03:12:18;;;;;;;11.50;5.18;;;7.90;99.90;;;;;;4968940;28;20046;-67
2023/03/20 03:14:58;;;;;;;13.05;5.43;;;7.90;99.90;;;;;;4959888;28;20050;-66
2023/03/20 03:17:28;;;;;;;13.80;4.75;;;7.90;99.90;;;;;;4987862;28;20049;-67
2023/03/20 03:19:59;;;;;;;10.82;4.43;;;7.90;99.90;;;;;;4990231;28;20112;-66
2023/03/20 03:22:25;;;;;;;8.75;4.15;;;7.90;99.90;;;;;;4969894;28;20038;-67
2023/03/20 03:24:53;;;;;;;7.70;3.85;;;7.90;99.90;;;;;;4969232;28;20041;-67
2023/03/20 03:27:24;;;;;;;11.80;4.07;;;7.90;99.90;;;;;;4967461;28;20145;-67
2023/03/20 03:29:55;;;;;;;10.07;3.63;;;7.90;99.90;;;;;;4971180;28;20050;-67
2023/03/20 03:32:35;;;;;;;10.07;4.10;;;7.90;99.90;;;;;;4987516;28;20459;-67
2023/03/20 03:35:04;;;;;;;8.48;4.22;;;7.90;99.90;;;;;;4971737;28;20133;-67
2023/03/20 03:37:35;;;;;;;10.43;3.25;;;8.00;99.90;;;;;;4961626;28;20065;-67
2023/03/20 03:40:18;;;;;;;10.55;3.63;;;7.90;99.90;;;;;;4967364;28;20460;-67
2023/03/20 03:43:16;;;;;;;10.38;3.47;;;8.00;99.90;;;;;;4973383;28;20129;-67
2023/03/20 03:46:34;;;;;;;9.32;4.50;;;8.00;99.90;;;;;;4973988;28;20042;-67
2023/03/20 03:49:02;;;;;;;8.50;3.30;;;8.00;99.90;;;;;;4918105;28;20046;-67
2023/03/20 03:51:31;;;;;;;6.72;3.58;;;8.00;99.90;;;;;;4967623;28;20387;-67
2023/03/20 03:54:07;;;;;;;8.25;3.40;;;8.00;99.90;;;;;;4972647;28;20046;-67
2023/03/20 03:56:36;;;;;;;8.43;3.50;;;8.00;99.90;;;;;;4968056;28;20050;-66
2023/03/20 03:59:07;;;;;;;11.35;4.68;;;8.00;99.90;;;;;;4989821;28;20052;-67
2023/03/20 04:01:35;;;;;;;7.63;3.88;;;8.00;99.90;;;;;;4982750;28;20100;-67
2023/03/20 04:04:04;;;;;;;9.50;4.15;;;8.00;99.90;;;;;;4977207;28;20069;-67
2023/03/20 04:06:31;;;;;;;11.13;4.68;;;8.00;99.90;;;;;;4987241;28;20080;-67
2023/03/20 04:08:56;;;;;;;12.32;5.13;;;8.00;99.90;;;;;;4971266;28;20049;-66
2023/03/20 04:11:24;;;;;;;8.73;4.87;;;8.00;99.90;;;;;;4991035;28;20760;-66
2023/03/20 04:13:51;;;;;;;9.63;4.97;;;8.00;99.90;;;;;;4971748;28;20046;-67
2023/03/20 04:16:17;;;;;;;;;;;8.00;99.90;;;;;;4989459;28;20046;-67
2023/03/20 04:18:44;;;;;;;11.25;4.70;;;8.00;99.90;;;;;;4978505;28;19928;-67
2023/03/20 04:21:09;;;;;;;;;;;7.90;99.90;;;;;;4978519;28;20409;-67
2023/03/20 04:23:35;;;;;;;12.70;4.20;;;7.90;99.90;;;;;;4974966;28;19999;-67
2023/03/20 04:26:02;;;;;;;11.43;4.83;;;7.90;99.90;;;;;;4972769;28;20041;-67
2023/03/20 04:28:28;;;;;;;9.48;4.65;;;7.90;99.90;;;;;;4969776;28;20428;-67
2023/03/20 04:30:55;;;;;;;10.97;4.77;;;7.90;99.90;;;;;;4956383;28;20081;-67
2023/03/20 04:33:22;;;;;;;11.95;4.60;;;7.90;99.90;;;;;;4970772;28;20108;-66
2023/03/20 04:35:47;;;;;;;;;;;7.90;99.90;;;;;;4989686;28;20507;-67
2023/03/20 04:38:13;;;;;;;12.23;4.40;;;7.90;99.90;;;;;;4990953;28;19998;-67
2023/03/20 04:40:39;;;;;;;13.52;4.88;;;7.90;99.90;;;;;;4987002;28;20038;-67
2023/03/20 04:43:05;;;;;;;8.15;4.25;;;7.90;99.90;;;;;;4986053;28;20042;-66
2023/03/20 04:45:31;;;;;;;13.88;5.10;;;7.90;99.90;;;;;;4967962;28;20538;-67
2023/03/20 04:47:56;;;;;;;7.53;4.03;;;7.90;99.90;;;;;;4968066;28;20204;-67
2023/03/20 04:50:22;;;;;;;16.27;5.93;;;7.90;99.90;;;;;;4970052;28;20048;-67
2023/03/20 04:52:47;;;;;;;13.57;5.23;;;7.90;99.90;;;;;;4974833;28;20046;-67
2023/03/20 04:55:13;;;;;;;12.50;4.90;;;7.90;99.90;;;;;;4956721;28;20051;-67
2023/03/20 04:57:39;;;;;;;13.43;5.03;;;7.90;99.90;;;;;;4972316;28;20049;-67
2023/03/20 05:00:06;;;;;;;9.73;4.72;;;7.90;99.90;;;;;;4970932;28;20047;-67
2023/03/20 05:02:32;;;;;;;13.07;5.65;;;7.90;99.90;;;;;;4970559;28;20054;-67
2023/03/20 05:04:57;;;;;;;17.13;6.60;;;7.80;99.90;;;;;;4986868;28;20183;-67
2023/03/20 05:07:23;;;;;;;12.80;4.97;;;7.90;99.90;;;;;;4970512;28;20046;-67
2023/03/20 05:09:49;;;;;;;18.17;5.10;;;7.80;99.90;;;;;;4971206;28;20046;-66
2023/03/20 05:12:14;;;;;;;13.70;5.53;;;7.80;99.90;;;;;;4954950;28;20054;-66
2023/03/20 05:14:40;;;;;;;12.88;5.45;;;7.80;99.90;;;;;;4986264;28;20876;-67
2023/03/20 05:17:06;;;;;;;10.40;5.10;;;7.80;99.90;;;;;;4970092;28;20042;-66
2023/03/20 05:19:31;;;;;;;18.97;6.50;;;7.80;99.90;;;;;;4989537;28;20392;-67
2023/03/20 05:21:57;;;;;;;13.50;6.03;;;7.80;99.90;;;;;;4988854;28;20065;-67
2023/03/20 05:24:22;;;;;;;12.33;5.50;;;7.80;99.90;;;;;;4984047;28;20045;-67
2023/03/20 05:26:48;;;;;;;14.30;6.17;;;7.80;99.90;;;;;;4968064;28;20188;-67
2023/03/20 05:29:14;;;;;;;14.17;6.73;;;7.80;99.90;;;;;;4987187;28;20514;-67
2023/03/20 05:31:40;;;;;;;16.15;6.65;;;7.80;99.90;;;;;;4975479;28;20050;-67
2023/03/20 05:34:05;;;;;;;14.75;6.13;;;7.80;99.90;;;;;;4969785;28;20057;-66
2023/03/20 05:36:31;;;;;;;12.17;5.97;;;7.80;99.90;;;;;;4971096;28;20049;-67
2023/03/20 05:38:57;;;;;;;12.03;5.87;;;7.70;99.90;;;;;;4992927;28;20133;-67
2023/03/20 05:41:22;;;;;;;19.33;6.67;;;7.80;99.90;;;;;;4970158;28;20064;-67
2023/03/20 05:43:48;;;;;;;19.53;6.73;;;7.70;99.90;;;;;;4986946;28;20178;-67
2023/03/20 05:46:15;;;;;;;14.07;5.40;;;7.80;99.90;;;;;;4986880;28;20368;-67
2023/03/20 05:48:40;;;;;;;14.57;6.47;;;7.80;99.90;;;;;;4971447;28;20216;-67
2023/03/20 05:51:06;;;;;;;14.63;5.83;;;7.80;99.90;;;;;;4978154;28;20573;-67
2023/03/20 05:53:32;;;;;;;12.52;6.53;;;7.80;99.90;;;;;;4985902;28;20416;-67
2023/03/20 05:55:57;;;;;;;14.23;5.90;;;7.80;99.90;;;;;;4986975;28;20138;-67
2023/03/20 05:58:23;;;;;;;17.43;6.47;;;7.80;99.90;;;;;;4987498;28;20099;-67
2023/03/20 06:00:48;;;;;;;16.77;6.13;;;7.80;99.90;;;;;;4972518;28;20042;-67
2023/03/20 06:03:14;;;;;;;13.73;5.80;;;7.80;99.90;;;;;;4971084;28;20041;-66
2023/03/20 06:05:41;;;;;;;14.48;4.80;;;7.70;99.90;;;;;;4969797;28;20074;-67
2023/03/20 06:08:06;;;;;;;12.98;5.78;;;7.80;99.90;;;;;;4991219;28;20054;-67
2023/03/20 06:15:30;;;;;;;;;;;;;;;;;;;;;
2023/03/20 06:21:52;;;;;;;17.58;6.75;;;7.80;99.90;;;;;;4943860;22;20730;-69
2023/03/20 06:24:18;;;;;;;11.50;4.90;;;7.80;99.90;;;;;;5038894;28;20057;-69
2023/03/20 06:26:44;;;;;;;11.37;5.77;;;7.90;99.90;;;;;;5019219;28;20052;-69
2023/03/20 06:29:09;;;;;;;13.93;5.97;;;7.80;99.90;;;;;;5014255;28;20102;-69
2023/03/20 06:31:35;;;;;;;14.53;5.77;;;7.90;99.90;;;;;;5009693;28;20270;-69
2023/03/20 06:34:01;;;;;;;12.30;4.90;;;7.90;99.90;;;;;;5025233;28;20479;-69
2023/03/20 06:36:27;;;;;;;15.73;5.93;;;7.90;99.90;;;;;;5007397;28;20103;-69
2023/03/20 06:38:55;;;;;;;10.03;5.57;;;7.90;99.90;;;;;;5026967;28;20045;-69
2023/03/20 06:41:21;;;;;;;11.93;6.05;;;7.90;99.90;;;;;;5008639;28;20064;-69
2023/03/20 06:43:47;;;;;;;12.23;5.90;;;7.90;99.90;;;;;;5009826;28;20491;-70
2023/03/20 06:46:16;;;;;;;14.50;5.78;;;8.00;99.90;;;;;;5007459;28;20037;-71
2023/03/20 06:48:41;;;;;;;9.90;5.47;;;7.90;99.90;;;;;;5023436;28;20051;-76
2023/03/20 06:51:07;;;;;;;11.40;5.00;;;7.90;99.90;;;;;;5013347;28;20099;-69
2023/03/20 06:53:33;;;;;;;12.35;5.38;;;8.00;99.90;;;;;;5003948;28;20052;-69
2023/03/20 06:55:59;;;;;;;11.90;4.87;;;7.90;99.90;;;;;;5023867;28;20487;-69
2023/03/20 06:58:25;;;;;;;10.40;5.13;;;8.00;99.90;;;;;;5028041;28;20349;-70
2023/03/20 07:00:53;;;;;;;18.17;6.30;;;8.00;99.90;;;;;;5021587;28;20049;-71
2023/03/20 07:03:19;;;;;;;12.10;5.47;;;8.00;99.90;;;;;;5019632;28;20048;-73
2023/03/20 07:05:45;;;;;;;13.55;5.97;;;8.10;99.90;;;;;;4998515;28;20068;-70
2023/03/20 07:08:11;;;;;;;16.60;6.35;;;8.10;99.90;;;;;;5028764;28;20045;-69
2023/03/20 07:10:37;;;;;;;16.27;6.40;;;8.10;99.90;;;;;;5019189;28;20034;-72
2023/03/20 07:13:03;;;;;;;13.32;6.68;;;8.10;99.90;;;;;;5004818;28;20057;-70
2023/03/20 07:15:29;;;;;;;12.70;6.68;;;8.10;99.90;;;;;;5006735;28;20048;-69
2023/03/20 07:17:55;;;;;;;13.30;5.88;;;8.20;99.90;;;;;;5006705;28;20520;-69
2023/03/20 07:20:21;;;;;;;15.70;6.85;;;8.20;99.90;;;;;;5026064;28;20057;-69
2023/03/20 07:22:47;;;;;;;16.77;6.75;;;8.20;99.90;;;;;;5014502;28;20514;-69
2023/03/20 07:25:14;;;;;;;15.77;6.55;;;8.30;99.90;;;;;;5007582;28;20510;-69
2023/03/20 07:27:39;;;;;;;;;;;8.30;99.90;;;;;;5005656;28;20095;-69
2023/03/20 07:30:07;;;;;;;12.30;5.55;;;8.30;99.90;;;;;;5025916;28;19924;-69
2023/03/20 07:32:33;;;;;;;17.92;6.30;;;8.30;99.90;;;;;;5020108;28;20064;-69
2023/03/20 07:34:59;;;;;;;16.02;6.60;;;8.40;99.90;;;;;;5004100;28;20049;-69
2023/03/20 07:37:25;;;;;;;16.42;7.43;;;8.40;99.90;;;;;;5024794;28;20449;-69
2023/03/20 07:39:50;;;;;;;13.33;6.80;;;8.50;99.90;;;;;;5008577;28;20112;-71
2023/03/20 07:42:16;;;;;;;14.37;7.20;;;8.40;99.90;;;;;;4996456;28;20510;-72
2023/03/20 07:44:42;;;;;;;20.23;8.87;;;8.50;99.90;;;;;;5008205;28;20037;-69
2023/03/20 07:47:10;;;;;;;14.50;7.47;;;8.50;99.90;;;;;;5015825;28;20049;-69
2023/03/20 07:49:36;;;;;;;20.10;7.43;;;8.50;99.90;;;;;;5029719;28;20065;-69
2023/03/20 07:52:04;;;;;;;19.92;7.40;;;8.50;99.90;;;;;;5029701;28;20086;-69
2023/03/20 07:54:30;;;;;;;17.00;7.23;;;8.60;99.90;;;;;;5026848;28;20454;-69
2023/03/20 07:56:55;;;;;;;17.10;8.20;;;8.60;99.90;;;;;;5029890;28;20491;-69
2023/03/20 07:59:21;;;;;;;18.23;7.40;;;8.60;99.90;;;;;;5011622;28;20122;-69
2023/03/20 08:01:47;;;;;;;19.57;7.97;;;8.60;99.90;;;;;;5029553;28;20061;-69
2023/03/20 08:04:12;;;;;;;16.23;7.87;;;8.70;99.90;;;;;;5007340;28;20125;-69
2023/03/20 08:06:38;;;;;;;19.87;8.10;;;8.70;99.90;;;;;;5027849;28;20057;-69
2023/03/20 08:09:06;;;;;;;19.53;7.67;;;8.70;99.90;;;;;;5026370;28;20459;-69
2023/03/20 08:11:32;;;;;;;20.17;6.93;;;8.70;99.90;;;;;;5029897;28;20136;-69
2023/03/20 08:13:57;;;;;;;14.70;6.63;;;8.80;99.90;;;;;;4996179;28;20514;-69
2023/03/20 08:16:24;;;;;;;18.23;7.97;;;8.80;99.90;;;;;;5029087;28;20049;-69
2023/03/20 08:18:49;;;;;;;17.77;7.10;;;8.80;99.90;;;;;;5011235;28;20033;-69
2023/03/20 08:21:15;;;;;;;19.17;7.80;;;8.80;99.90;;;;;;4993230;28;20483;-69
2023/03/20 08:23:41;;;;;;;16.77;6.73;;;8.90;99.90;;;;;;5013130;28;20717;-69
2023/03/20 08:26:07;;;;;;;12.70;6.53;;;8.90;99.90;;;;;;5029371;28;20537;-69
2023/03/20 08:28:33;;;;;;;;;;;8.90;99.90;;;;;;5029897;28;20045;-69
2023/03/20 08:30:58;;;;;;;12.63;5.72;;;8.90;99.90;;;;;;5029898;28;19967;-69
2023/03/20 08:33:24;;;;;;;17.10;6.17;;;8.90;99.90;;;;;;5024233;28;20670;-69
2023/03/20 08:35:57;;;;;;;14.57;6.47;;;9.00;99.90;;;;;;5028604;28;20041;-69
2023/03/20 08:38:23;;;;;;;15.88;5.80;;;9.00;99.90;;;;;;5011245;28;20041;-69
2023/03/20 08:40:49;;;;;;;16.40;7.07;;;9.00;99.90;;;;;;5028393;28;20033;-69
2023/03/20 08:43:15;;;;;;;14.73;5.50;;;9.10;99.90;;;;;;5012698;28;20049;-69
2023/03/20 08:45:40;;;;;;;10.48;5.40;;;9.10;99.90;;;;;;5033361;28;20060;-69
2023/03/20 08:48:06;;;;;;;12.47;6.07;;;9.10;99.90;;;;;;5028176;28;20034;-69
2023/03/20 08:50:32;;;;;;;12.03;5.77;;;9.20;99.90;;;;;;5027203;28;20052;-69
2023/03/20 08:52:57;;;;;;;15.57;5.87;;;9.20;99.90;;;;;;5029140;28;20277;-69
2023/03/20 08:55:23;;;;;;;15.83;5.77;;;9.20;99.90;;;;;;5009905;28;20041;-69
2023/03/20 08:57:49;;;;;;;12.67;6.23;;;9.30;99.90;;;;;;5028826;28;20038;-69
2023/03/20 09:00:15;;;;;;;14.45;6.57;;;9.30;99.90;;;;;;5014406;28;20045;-69
2023/03/20 09:02:42;;;;;;;13.35;6.25;;;9.40;99.90;;;;;;5029183;28;20993;-69
2023/03/20 09:05:08;;;;;;;10.95;5.65;;;9.40;99.90;;;;;;5029178;28;20116;-69
2023/03/20 09:07:35;;;;;;;15.60;5.85;;;9.40;99.90;;;;;;4994491;28;20053;-69
2023/03/20 09:10:01;;;;;;;13.90;5.75;;;9.50;99.90;;;;;;5012711;28;20042;-69
2023/03/20 09:12:27;;;;;;;12.50;5.68;;;9.50;99.90;;;;;;5010692;28;20030;-68
2023/03/20 09:14:53;;;;;;;13.60;5.63;;;9.50;99.90;;;;;;5029074;28;20045;-68
2023/03/20 09:17:18;;;;;;;10.10;5.37;;;9.60;99.90;;;;;;5027762;28;20089;-69
2023/03/20 09:19:44;;;;;;;12.87;5.50;;;9.60;99.90;;;;;;5028023;28;20037;-69
2023/03/20 09:22:13;;;;;;;11.73;5.43;;;9.70;99.90;;;;;;5010083;28;20045;-69
2023/03/20 09:24:38;;;;;;;12.75;5.03;;;9.70;99.90;;;;;;5029798;28;20081;-69
2023/03/20 09:27:04;;;;;;;12.10;4.80;;;9.80;99.90;;;;;;5026853;28;20072;-68
2023/03/20 09:29:30;;;;;;;10.53;5.47;;;9.80;99.90;;;;;;5009679;28;20044;-68
2023/03/20 09:31:55;;;;;;;10.10;4.97;;;9.80;99.90;;;;;;5029751;28;20037;-68
2023/03/20 09:34:21;;;;;;;11.37;5.73;;;9.80;99.90;;;;;;4994012;28;20099;-67
2023/03/20 09:36:47;;;;;;;14.80;6.07;;;9.90;99.90;;;;;;5012461;28;20048;-68
2023/03/20 09:39:12;;;;;;;12.27;6.20;;;9.80;99.90;;;;;;5025619;28;20278;-68
2023/03/20 09:41:39;;;;;;;17.37;6.17;;;9.90;99.90;;;;;;5027740;28;20046;-68
2023/03/20 09:44:49;;;;;;;12.52;5.70;;;9.90;99.90;;;;;;5028241;28;20050;-68
2023/03/20 09:47:27;;;;;;;15.25;5.75;;;9.90;99.90;;;;;;4982046;28;20128;-68
2023/03/20 09:49:53;;;;;;;14.35;5.15;;;9.90;99.90;;;;;;5005795;28;20037;-68
2023/03/20 09:52:27;;;;;;;18.27;5.87;;;9.90;99.90;;;;;;4987113;28;20531;-68
2023/03/20 09:55:00;;;;;;;16.55;6.35;;;9.90;99.90;;;;;;5024435;28;20486;-68
2023/03/20 09:57:46;;;;;;;16.00;6.13;;;9.90;99.90;;;;;;5026782;28;20418;-68
2023/03/20 10:00:18;;;;;;;14.43;6.72;;;9.80;99.90;;;;;;5022434;28;20033;-72
2023/03/20 10:03:05;;;;;;;11.25;5.65;;;9.80;99.90;;;;;;5004242;28;20052;-70
2023/03/20 10:05:38;;;;;;;12.07;5.63;;;9.80;99.90;;;;;;5026433;28;20068;-71
2023/03/20 10:08:09;;;;;;;13.43;6.03;;;9.80;99.90;;;;;;5020585;28;20238;-70
2023/03/20 10:10:38;;;;;;;13.18;5.82;;;9.80;99.90;;;;;;5003376;28;20053;-73
2023/03/20 10:13:22;;;;;;;17.70;6.97;;;9.80;99.90;;;;;;5015896;28;20045;-69
2023/03/20 10:16:29;;;;;;;11.95;6.13;;;9.80;99.90;;;;;;5000975;28;20490;-75
2023/03/20 10:19:22;;;;;;;13.73;6.40;;;9.80;99.90;;;;;;5027239;28;20203;-68
2023/03/20 10:22:12;;;;;;;19.33;7.45;;;9.80;99.90;;;;;;5009543;28;20045;-68
2023/03/20 10:24:43;;;;;;;18.15;6.40;;;9.80;99.90;;;;;;5029487;28;20064;-68
2023/03/20 10:27:22;;;;;;;17.30;6.30;;;9.80;99.90;;;;;;5023007;28;20077;-68
2023/03/20 10:30:29;;;;;;;13.45;6.07;;;9.80;99.90;;;;;;5020281;28;20502;-68
2023/03/20 10:33:25;;;;;;;14.05;6.45;;;9.80;99.90;;;;;;4941879;28;20126;-68
2023/03/20 10:36:29;;;;;;;15.23;6.40;;;9.70;99.90;;;;;;4960610;28;20448;-68
2023/03/20 10:39:01;;;;;;;14.30;6.35;;;9.60;99.90;;;;;;4991169;28;20084;-68
2023/03/20 10:41:36;;;;;;;16.00;6.65;;;9.60;99.90;;;;;;5010081;28;20395;-68
2023/03/20 10:44:03;;;;;;;16.42;6.15;;;9.60;99.90;;;;;;5008376;28;20086;-68
2023/03/20 10:46:40;;;;;;;14.38;5.80;;;9.60;99.90;;;;;;5031003;28;20100;-68
2023/03/20 10:49:35;;;;;;;13.45;6.35;;;9.60;99.90;;;;;;4993486;28;20321;-68
2023/03/20 10:52:04;;;;;;;15.60;6.60;;;9.70;99.90;;;;;;5022892;28;20041;-68
2023/03/20 10:54:34;;;;;;;20.15;5.88;;;9.60;99.90;;;;;;5027606;28;20118;-68
2023/03/20 10:57:03;;;;;;;9.98;4.95;;;9.60;99.90;;;;;;5027814;28;20392;-68
2023/03/20 10:59:40;;;;;;;12.10;5.90;;;9.80;99.90;;;;;;5026315;28;20541;-68
2023/03/20 11:02:12;;;;;;;;;;;9.80;99.90;;;;;;5031571;28;20047;-68
2023/03/20 11:04:38;;;;;;;10.18;4.78;;;9.80;99.90;;;;;;5014925;28;19947;-68
2023/03/20 11:07:19;;;;;;;15.70;5.78;;;9.80;99.90;;;;;;5029550;28;20037;-68
2023/03/20 11:09:45;;;;;;;14.57;6.57;;;9.80;99.90;;;;;;5032425;28;20045;-68
2023/03/20 11:12:18;;;;;;;12.85;5.80;;;9.80;99.90;;;;;;5027634;28;20434;-68
2023/03/20 11:14:43;;;;;;;11.38;5.20;;;9.90;99.90;;;;;;5033574;28;20501;-68
2023/03/20 11:17:11;;;;;;;9.40;5.40;;;9.80;99.90;;;;;;5009673;28;20128;-68
2023/03/20 11:19:38;;;;;;;9.38;5.28;;;9.80;99.90;;;;;;5018412;28;20358;-72
2023/03/20 11:22:22;;;;;;;16.25;5.95;;;9.70;99.90;;;;;;5023706;28;20030;-72
2023/03/20 11:25:01;;;;;;;12.27;4.70;;;9.70;99.90;;;;;;5000020;28;20132;-72
2023/03/20 11:27:30;;;;;;;11.52;5.18;;;9.80;99.90;;;;;;5020042;28;20225;-68
2023/03/20 11:29:57;;;;;;;12.57;5.57;;;9.80;99.90;;;;;;5013516;28;20071;-70
2023/03/20 11:32:48;;;;;;;14.05;6.45;;;9.70;99.90;;;;;;5027561;28;20125;-68
2023/03/20 11:35:25;;;;;;;11.20;4.93;;;9.70;99.90;;;;;;5027049;28;20434;-68
2023/03/20 11:38:06;;;;;;;7.70;4.78;;;9.60;99.90;;;;;;5008198;28;20052;-70
2023/03/20 11:40:33;;;;;;;13.35;4.70;;;9.50;99.90;;;;;;5023499;28;20041;-68
2023/03/20 11:43:10;;;;;;;17.77;5.45;;;9.60;99.90;;;;;;5014865;28;20041;-68
2023/03/20 11:45:41;;;;;;;13.57;5.55;;;9.50;99.90;;;;;;5008825;28;20041;-68
2023/03/20 11:48:24;;;;;;;9.23;5.30;;;9.50;99.90;;;;;;5027361;28;20045;-68
2023/03/20 11:51:04;;;;;;;12.18;5.38;;;9.50;99.90;;;;;;5014722;28;20052;-68
2023/03/20 11:53:34;;;;;;;11.23;4.75;;;9.40;99.90;;;;;;5023542;28;20309;-68
2023/03/20 11:56:19;;;;;;;12.15;5.95;;;9.40;99.90;;;;;;5027213;28;20044;-68
2023/03/20 11:59:13;;;;;;;11.32;4.82;;;9.40;99.90;;;;;;5026367;28;20537;-67
2023/03/20 12:01:47;;;;;;;11.52;4.97;;;9.30;99.90;;;;;;5026375;28;20113;-68
2023/03/20 12:04:19;;;;;;;12.52;5.85;;;9.20;99.90;;;;;;5014759;28;20064;-68
2023/03/20 12:06:54;;;;;;;11.40;5.85;;;9.20;99.90;;;;;;5014617;28;20557;-68
2023/03/20 12:09:34;;;;;;;9.55;5.03;;;9.20;99.90;;;;;;5027442;28;20041;-68
2023/03/20 12:14:51;;;;;;;10.55;5.53;;;9.00;99.90;;;;;;4979502;28;20070;-71
2023/03/20 12:17:32;;;;;;;13.02;5.25;;;8.90;99.90;;;;;;4980799;28;20127;-70
2023/03/20 12:20:05;;;;;;;12.85;6.20;;;8.90;99.90;;;;;;4979795;28;20042;-70
2023/03/20 12:22:41;;;;;;;15.60;5.43;;;9.00;99.90;;;;;;4980164;28;20050;-70
2023/03/20 12:25:24;;;;;;;10.63;5.15;;;8.90;99.90;;;;;;4976052;28;20042;-69
2023/03/20 12:27:59;;;;;;;8.80;4.35;;;8.90;99.90;;;;;;4986245;28;20101;-70
2023/03/20 12:30:48;;;;;;;14.57;5.93;;;8.90;99.90;;;;;;4977971;28;20575;-70
2023/03/20 12:33:37;;;;;;;10.88;5.63;;;8.90;99.90;;;;;;4977703;28;20050;-69
2023/03/20 12:36:05;;;;;;;11.20;5.97;;;8.90;99.90;;;;;;4997380;28;20504;-70
2023/03/20 12:38:33;;;;;;;13.75;5.82;;;8.90;99.90;;;;;;4983985;28;20476;-70
2023/03/20 12:41:11;;;;;;;10.57;5.32;;;8.80;99.90;;;;;;4981786;28;20034;-71
2023/03/20 12:43:52;;;;;;;13.80;6.57;;;8.90;99.90;;;;;;4976499;28;20497;-71
2023/03/20 12:46:25;;;;;;;13.23;6.65;;;8.90;99.90;;;;;;4975618;28;20043;-70
2023/03/20 12:49:03;;;;;;;11.55;6.60;;;8.90;99.90;;;;;;4975715;28;20129;-71
2023/03/20 12:52:00;;;;;;;13.10;6.15;;;8.90;99.90;;;;;;4984545;28;20065;-71
2023/03/20 12:54:56;;;;;;;14.15;6.70;;;8.90;99.90;;;;;;4981303;28;20061;-71
2023/03/20 12:57:28;;;;;;;9.57;5.45;;;8.90;99.90;;;;;;4979556;28;20038;-71
2023/03/20 13:00:21;;;;;;;11.90;6.00;;;8.90;99.90;;;;;;4979793;28;20101;-70
2023/03/20 13:02:58;;;;;;;8.57;5.57;;;8.90;99.90;;;;;;4967568;28;20058;-69
2023/03/20 13:05:41;;;;;;;10.23;5.35;;;8.90;99.90;;;;;;4976318;28;20154;-70
2023/03/20 13:08:19;;;;;;;11.43;6.40;;;8.90;99.90;;;;;;4976427;28;20133;-69
2023/03/20 13:11:13;;;;;;;14.23;6.32;;;8.90;99.90;;;;;;4977369;28;20034;-71
2023/03/20 13:14:04;;;;;;;12.45;5.40;;;9.00;99.90;;;;;;4953026;28;20172;-71
2023/03/20 13:16:49;;;;;;;12.82;6.53;;;9.00;99.90;;;;;;4965917;28;20054;-70
2023/03/20 13:19:35;;;;;;;7.88;5.05;;;9.00;99.90;;;;;;4971848;28;20096;-69
2023/03/20 13:22:24;;;;;;;10.60;5.93;;;9.00;99.90;;;;;;4974830;28;20046;-70
2023/03/20 13:24:55;;;;;;;13.40;5.85;;;9.00;99.90;;;;;;4972551;28;20498;-69
2023/03/20 13:27:53;;;;;;;10.32;5.50;;;9.00;99.90;;;;;;4977094;28;20280;-71
2023/03/20 13:30:52;;;;;;;9.98;5.88;;;8.90;99.90;;;;;;4961000;28;20391;-71